Terminal Aerodrome Forecast
Issued by NWS Rapid City, SD

Home | Current Version | Previous Version | Graphics & Text | Print | Product List | Glossary On
Versions: 1 2 3 4 5 6 7 8 9 10 11 12
899
FTUS43 KUNR 302320
TAFRAP
TAF
KRAP 302320Z 0100/0124 02016G26KT P6SM FEW050 OVC120
     FM010200 01014KT P6SM BKN120
     FM010600 36008KT P6SM SCT150
     FM011500 36015G22KT P6SM SCT200=

USA.gov is the U.S. government's official web portal to all federal, state and local government web resources and services.